Time;durP1;ratioP1;P1;durP2;ratioP2;P2;SDS_P1;SDS_P2;PMS_P1;PMS_P2;Temp;Humidity;BMP_temperature;BMP_pressure;BME280_temperature;BME280_humidity;BME280_pressure;Samples;Min_cycle;Max_cycle;Signal;HPM_P1;HPM_P2
2022/04/03 00:00:58;;;;;;;;;17.00;17.00;;;;;20.22;20.79;101678.28;5054710;28;45439;-80
2022/04/03 00:03:23;;;;;;;;;18.67;18.67;;;;;20.38;20.78;101705.16;5054495;28;45544;-80
2022/04/03 00:05:48;;;;;;;;;22.33;16.33;;;;;19.96;20.67;101637.16;5053221;28;48216;-80
2022/04/03 00:08:14;;;;;;;;;18.33;16.00;;;;;20.36;20.97;101712.31;5054731;28;45465;-80
2022/04/03 00:10:40;;;;;;;;;19.33;17.33;;;;;20.28;20.88;101708.78;5054533;28;45672;-80
2022/04/03 00:13:06;;;;;;;;;20.67;17.00;;;;;20.21;20.82;101708.84;5054828;28;45286;-80
2022/04/03 00:15:32;;;;;;;;;17.33;14.33;;;;;20.28;20.83;101709.69;5054329;28;46551;-80
2022/04/03 00:17:58;;;;;;;;;17.33;14.33;;;;;20.30;20.73;101698.91;5054223;28;45237;-80
2022/04/03 00:20:23;;;;;;;;;15.67;15.33;;;;;20.15;20.65;101672.94;5054590;28;45233;-80
2022/04/03 00:22:49;;;;;;;;;17.00;15.33;;;;;20.27;20.66;101698.94;5054252;28;45255;-80
2022/04/03 00:25:19;;;;;;;;;14.33;14.33;;;;;20.33;20.85;101712.34;5054539;28;46161;-80
2022/04/03 00:27:45;;;;;;;;;16.33;12.33;;;;;20.38;20.57;101707.84;5057468;28;45372;-80
2022/04/03 00:30:11;;;;;;;;;18.33;15.33;;;;;20.07;20.33;101656.84;5058033;28;45447;-80
2022/04/03 00:32:37;;;;;;;;;18.00;15.00;;;;;20.28;20.66;101695.31;5057112;28;45520;-80
2022/04/03 00:35:04;;;;;;;;;16.67;15.33;;;;;20.35;20.52;101716.84;5057799;28;45526;-80
2022/04/03 00:37:30;;;;;;;;;12.33;12.33;;;;;20.30;20.59;101713.25;5057500;28;45404;-80
2022/04/03 00:39:56;;;;;;;;;13.00;12.00;;;;;19.69;20.38;101606.75;5056239;28;45352;-80
2022/04/03 00:42:21;;;;;;;;;13.00;12.33;;;;;20.21;20.56;101703.44;5056578;28;45356;-80
2022/04/03 00:44:47;;;;;;;;;16.00;15.00;;;;;20.29;20.44;101707.88;5057437;28;46143;-80
2022/04/03 00:47:16;;;;;;;;;18.00;13.67;;;;;19.38;20.69;101606.88;5057296;28;45438;-80
2022/04/03 00:49:41;;;;;;;;;16.00;16.00;;;;;19.06;20.79;101562.16;5057289;28;45285;-79
2022/04/03 00:52:07;;;;;;;;;15.00;13.33;;;;;19.50;20.54;101641.78;5057446;28;45448;-80
2022/04/03 00:54:32;;;;;;;;;24.33;18.33;;;;;19.73;20.43;101693.75;5057419;28;45340;-80
2022/04/03 00:56:58;;;;;;;;;17.00;15.00;;;;;19.72;20.67;101679.41;5057410;28;45408;-80
2022/04/03 00:59:23;;;;;;;;;20.33;18.00;;;;;19.52;20.67;101666.94;5057275;28;45357;-80
2022/04/03 01:01:48;;;;;;;;;16.33;15.33;;;;;19.35;20.83;101641.84;5057003;28;45267;-80
2022/04/03 01:04:14;;;;;;;;;19.67;18.33;;;;;19.35;20.72;101641.84;5057395;28;46185;-80
2022/04/03 01:06:40;;;;;;;;;18.00;18.00;;;;;19.36;20.91;101654.41;5055700;28;45448;-80
2022/04/03 01:09:05;;;;;;;;;20.00;19.00;;;;;19.26;20.67;101617.69;5057486;28;45532;-80
2022/04/03 01:11:31;;;;;;;;;13.67;13.67;;;;;19.80;20.79;101693.78;5057184;28;45596;-79
2022/04/03 01:13:57;;;;;;;;;14.00;11.67;;;;;19.77;21.08;101707.19;5055344;28;47114;-79
2022/04/03 01:16:23;;;;;;;;;15.00;15.00;;;;;19.76;21.10;101709.91;5057230;28;45403;-80
2022/04/03 01:18:49;;;;;;;;;15.67;14.67;;;;;18.90;21.04;101546.97;5055522;28;45537;-79
2022/04/03 01:21:17;;;;;;;;;13.00;13.00;;;;;19.83;20.78;101692.84;5057096;28;45477;-80
2022/04/03 01:23:42;;;;;;;;;16.67;15.00;;;;;19.79;21.09;101686.59;5056495;28;45943;-80
2022/04/03 01:26:08;;;;;;;;;15.67;14.67;;;;;19.83;20.80;101709.91;5056773;28;45572;-79
2022/04/03 01:28:33;;;;;;;;;14.67;11.00;;;;;18.89;21.02;101542.47;5056757;28;45393;-79
2022/04/03 01:30:59;;;;;;;;;14.67;13.00;;;;;19.84;20.98;101711.72;5057090;28;45500;-79
2022/04/03 01:33:24;;;;;;;;;17.33;16.00;;;;;19.65;20.63;101670.47;5056685;28;46249;-79
2022/04/03 01:35:50;;;;;;;;;17.00;16.00;;;;;19.33;20.90;101619.44;5056431;28;45406;-79
2022/04/03 01:38:15;;;;;;;;;14.33;13.67;;;;;19.86;21.21;101693.75;5055190;28;45461;-80
2022/04/03 01:40:41;;;;;;;;;17.00;12.67;;;;;19.15;20.91;101580.94;5056853;28;45539;-80
2022/04/03 01:43:09;;;;;;;;;16.67;15.00;;;;;19.96;21.10;101704.50;5056492;28;46201;-80
2022/04/03 01:45:39;;;;;;;;;11.33;11.33;;;;;19.95;20.87;101705.38;5056518;28;45498;-80
2022/04/03 01:48:05;;;;;;;;;15.00;13.00;;;;;19.91;21.06;101695.53;5056602;28;45324;-80
2022/04/03 01:50:31;;;;;;;;;15.33;15.00;;;;;19.93;21.31;101689.22;5056912;28;45345;-80
2022/04/03 01:52:57;;;;;;;;;22.33;19.00;;;;;19.92;20.94;101706.28;5056369;28;46431;-80
2022/04/03 01:55:24;;;;;;;;;17.33;14.67;;;;;19.87;20.94;101708.09;5056625;28;45430;-80
2022/04/03 01:57:49;;;;;;;;;12.67;12.67;;;;;19.13;21.32;101587.25;5056290;28;45375;-80
2022/04/03 02:00:15;;;;;;;;;16.00;13.00;;;;;19.49;21.33;101656.19;5056309;28;45554;-80
2022/04/03 02:02:40;;;;;;;;;16.33;15.00;;;;;19.71;21.36;101705.44;5056276;28;46231;-81
2022/04/03 02:05:07;;;;;;;;;18.33;16.67;;;;;19.59;21.49;101699.19;5056500;28;45462;-81
2022/04/03 02:07:36;;;;;;;;;19.00;16.00;;;;;19.48;21.57;101684.00;5057004;28;45557;-81
2022/04/03 02:10:03;;;;;;;;;17.00;16.33;;;;;19.09;21.53;101612.34;5056502;28;45416;-81
2022/04/03 02:12:29;;;;;;;;;19.67;16.67;;;;;19.58;21.70;101705.47;5055885;28;46512;-81
2022/04/03 02:14:54;;;;;;;;;20.33;19.00;;;;;19.11;21.57;101602.47;5055968;28;45386;-81
2022/04/03 02:17:20;;;;;;;;;13.67;12.67;;;;;19.68;21.63;101697.38;5056200;28;45362;-81
2022/04/03 02:19:45;;;;;;;;;18.33;16.00;;;;;19.35;21.25;101650.84;5054838;28;45379;-81
2022/04/03 02:22:10;;;;;;;;;22.67;18.00;;;;;19.55;21.52;101679.50;5056025;28;46122;-81
2022/04/03 02:24:36;;;;;;;;;17.67;15.67;;;;;19.03;21.53;101589.06;5055848;28;45467;-81
2022/04/03 02:27:01;;;;;;;;;19.33;15.33;;;;;19.11;21.39;101619.53;5055728;28;45380;-81
2022/04/03 02:29:27;;;;;;;;;17.33;15.00;;;;;19.49;21.39;101685.78;5056260;28;45356;-81
2022/04/03 02:31:52;;;;;;;;;12.67;12.67;;;;;18.84;21.58;101577.41;5055843;28;45336;-81
2022/04/03 02:34:18;;;;;;;;;19.67;16.00;;;;;18.70;21.91;101547.88;5055735;28;49086;-81
2022/04/03 02:36:44;;;;;;;;;16.00;12.00;;;;;19.57;21.84;101698.31;5055826;28;45487;-81
2022/04/03 02:39:12;;;;;;;;;13.67;12.00;;;;;19.55;21.56;101711.78;5055787;28;45238;-81
2022/04/03 02:41:38;;;;;;;;;16.00;14.67;;;;;19.19;21.82;101643.72;5055503;28;46450;-81
2022/04/03 02:44:04;;;;;;;;;11.67;10.00;;;;;19.49;21.92;101695.63;5055413;28;45445;-81
2022/04/03 02:46:30;;;;;;;;;16.33;13.33;;;;;18.78;21.73;101581.00;5056155;28;45990;-81
2022/04/03 02:48:56;;;;;;;;;15.67;13.67;;;;;19.42;21.74;101678.59;5054408;28;45491;-81
2022/04/03 02:51:21;;;;;;;;;11.00;11.00;;;;;19.39;21.75;101677.72;5055577;28;46232;-81
2022/04/03 02:53:46;;;;;;;;;15.33;14.67;;;;;19.41;21.82;101671.44;5055684;28;45371;-80
2022/04/03 02:56:12;;;;;;;;;18.67;15.00;;;;;19.57;21.75;101703.69;5055263;28;45580;-79
2022/04/03 02:58:37;;;;;;;;;12.67;12.67;;;;;19.46;22.00;101701.91;5055581;28;45535;-81
2022/04/03 03:01:03;;;;;;;;;14.33;12.67;;;;;19.39;22.02;101700.16;5055402;28;45990;-81
2022/04/03 03:03:28;;;;;;;;;15.33;15.00;;;;;19.10;22.10;101657.16;5055580;28;45399;-81
2022/04/03 03:05:53;;;;;;;;;15.67;14.67;;;;;19.32;22.15;101690.31;5054122;28;45467;-81
2022/04/03 03:08:19;;;;;;;;;16.67;15.33;;;;;18.71;22.01;101599.84;5055705;28;45380;-81
2022/04/03 03:10:44;;;;;;;;;13.00;13.00;;;;;18.72;21.82;101607.00;5069904;28;47112;-81
2022/04/03 03:13:10;;;;;;;;;15.33;15.00;;;;;19.43;21.67;101720.78;5053901;28;45376;-81
2022/04/03 03:15:35;;;;;;;;;14.67;14.67;;;;;19.36;22.16;101714.50;5055531;28;45406;-81
2022/04/03 03:18:01;;;;;;;;;13.67;12.00;;;;;18.88;22.01;101600.75;5055222;28;45542;-80
2022/04/03 03:20:26;;;;;;;;;17.00;15.00;;;;;19.12;22.31;101675.09;5055184;28;46280;-81
2022/04/03 03:22:52;;;;;;;;;8.00;8.00;;;;;19.26;22.21;101698.41;5054855;28;45353;-80
2022/04/03 03:25:18;;;;;;;;;16.00;16.00;;;;;19.45;22.26;101731.53;5055038;28;45808;-80
2022/04/03 03:27:43;;;;;;;;;14.67;12.67;;;;;19.34;21.84;101716.31;5055221;28;45551;-80
2022/04/03 03:30:11;;;;;;;;;16.67;15.67;;;;;19.35;22.05;101692.97;5055095;28;46458;-81
2022/04/03 03:32:37;;;;;;;;;15.00;15.00;;;;;18.77;22.25;101573.84;5055137;28;45510;-81
2022/04/03 03:35:03;;;;;;;;;16.00;16.00;;;;;19.65;22.07;101723.44;5054944;28;45511;-80
2022/04/03 03:37:28;;;;;;;;;15.00;15.00;;;;;19.67;21.96;101730.56;5070891;28;45302;-81
2022/04/03 03:39:53;;;;;;;;;17.00;13.33;;;;;19.58;21.91;101708.16;5054279;28;45882;-81
2022/04/03 03:42:19;;;;;;;;;13.33;12.00;;;;;19.56;22.31;101726.13;5055135;28;45230;-80
2022/04/03 03:44:45;;;;;;;;;15.00;14.00;;;;;19.53;22.07;101719.88;5055028;28;45420;-80
2022/04/03 03:47:11;;;;;;;;;19.00;16.33;;;;;19.65;21.96;101734.19;5054933;28;45325;-80
2022/04/03 03:49:36;;;;;;;;;19.33;14.33;;;;;19.57;21.81;101720.75;5054893;28;45944;-81
2022/04/03 03:52:03;;;;;;;;;15.00;15.00;;;;;19.60;22.18;101730.59;5054659;28;45502;-81
2022/04/03 03:54:28;;;;;;;;;16.67;13.67;;;;;19.66;21.81;101728.78;5054832;28;45505;-81
2022/04/03 03:56:54;;;;;;;;;12.00;12.00;;;;;19.68;22.08;101728.78;5054635;28;45476;-81
2022/04/03 03:59:19;;;;;;;;;14.33;14.33;;;;;19.17;21.96;101651.78;5054794;28;45527;-81
2022/04/03 04:01:44;;;;;;;;;14.67;14.67;;;;;19.66;21.91;101731.50;5058261;28;45455;-81
2022/04/03 04:04:10;;;;;;;;;15.67;13.00;;;;;19.64;21.82;101737.78;5058242;28;45454;-81
2022/04/03 04:06:35;;;;;;;;;14.00;14.00;;;;;19.55;22.03;101727.94;5058503;28;45455;-81
2022/04/03 04:09:00;;;;;;;;;17.33;16.00;;;;;18.93;22.26;101624.91;5063020;28;46008;-81
2022/04/03 04:11:26;;;;;;;;;12.33;12.33;;;;;19.29;21.96;101682.25;5078368;27;45450;-80
2022/04/03 04:13:51;;;;;;;;;10.67;10.33;;;;;19.64;22.10;101729.69;5078418;27;45517;-80
2022/04/03 04:16:17;;;;;;;;;12.67;8.67;;;;;19.27;22.25;101693.00;5078460;28;45445;-80
2022/04/03 04:18:42;;;;;;;;;14.33;12.00;;;;;19.06;22.31;101642.84;5078240;27;45642;-80
2022/04/03 04:21:10;;;;;;;;;16.00;11.67;;;;;19.70;22.25;101738.66;5078160;27;45324;-80
2022/04/03 04:23:35;;;;;;;;;14.00;14.00;;;;;19.32;21.90;101688.53;5077899;27;45389;-80
2022/04/03 04:26:01;;;;;;;;;15.00;13.33;;;;;19.17;22.08;101684.06;5078151;27;45324;-81
2022/04/03 04:28:26;;;;;;;;;14.67;14.00;;;;;19.54;22.13;101753.06;5078239;27;45344;-81
2022/04/03 04:30:51;;;;;;;;;13.00;13.00;;;;;19.25;21.95;101702.88;5110903;27;45378;-81
2022/04/03 04:33:17;;;;;;;;;12.00;11.00;;;;;19.50;22.02;101737.81;5078171;27;45457;-81
2022/04/03 04:35:42;;;;;;;;;11.67;11.33;;;;;19.47;21.77;101752.16;5111125;27;45460;-81
2022/04/03 04:38:07;;;;;;;;;17.00;15.33;;;;;19.18;22.09;101718.16;5077602;28;45487;-80
2022/04/03 04:40:33;;;;;;;;;11.67;10.00;;;;;19.28;22.04;101745.00;5077920;27;45373;-80
2022/04/03 04:42:59;;;;;;;;;13.33;13.33;;;;;19.43;22.01;101758.44;5077996;27;45446;-81
2022/04/03 04:45:27;;;;;;;;;15.67;11.33;;;;;19.43;22.00;101761.13;5078031;27;45463;-81
2022/04/03 04:47:59;;;;;;;;;14.33;10.67;;;;;19.40;22.09;101744.13;5077700;27;45375;-81
2022/04/03 04:50:26;;;;;;;;;16.33;14.00;;;;;19.51;22.13;101759.34;5077864;27;45612;-81
2022/04/03 04:52:52;;;;;;;;;15.67;13.33;;;;;19.09;22.18;101702.00;5077586;28;45518;-81
2022/04/03 04:55:19;;;;;;;;;12.00;12.00;;;;;19.26;22.39;101753.09;5077754;27;45356;-81
2022/04/03 04:57:50;;;;;;;;;13.33;11.33;;;;;19.35;22.01;101768.31;5077814;27;46262;-81
2022/04/03 05:00:17;;;;;;;;;12.33;11.00;;;;;19.34;22.11;101766.56;5077224;28;45499;-80
2022/04/03 05:02:46;;;;;;;;;12.00;12.00;;;;;19.38;22.32;101768.34;5077808;27;45309;-81
2022/04/03 05:05:15;;;;;;;;;15.00;14.00;;;;;19.12;22.21;101745.03;5077523;27;45357;-81
2022/04/03 05:07:42;;;;;;;;;15.00;12.00;;;;;18.99;22.21;101717.25;5077243;27;46368;-81
2022/04/03 05:10:08;;;;;;;;;11.33;10.00;;;;;19.24;22.32;101780.88;5062540;27;45294;-81
2022/04/03 05:12:37;;;;;;;;;14.33;13.67;;;;;19.26;22.25;101785.38;5056421;28;45344;-80
2022/04/03 05:15:03;;;;;;;;;14.33;10.67;;;;;19.00;22.01;101736.97;5057218;28;45575;-81
2022/04/03 05:17:29;;;;;;;;;15.00;14.67;;;;;19.10;22.09;101746.84;5057048;28;45961;-81
2022/04/03 05:19:54;;;;;;;;;12.33;12.33;;;;;18.73;22.11;101695.69;5056731;28;45389;-81
2022/04/03 05:22:25;;;;;;;;;16.00;15.00;;;;;18.58;22.26;101687.63;5057080;28;45324;-81
2022/04/03 05:24:51;;;;;;;;;12.33;12.33;;;;;18.81;22.63;101765.63;5056855;28;45297;-81
2022/04/03 05:27:17;;;;;;;;;14.00;12.67;;;;;18.88;22.68;101788.06;5056573;28;46039;-81
2022/04/03 05:29:43;;;;;;;;;11.00;10.00;;;;;18.68;22.53;101795.16;5056987;28;45541;-81
2022/04/03 05:32:08;;;;;;;;;15.00;11.67;;;;;17.86;22.76;101699.06;5056680;28;45448;-81
2022/04/03 05:34:34;;;;;;;;;14.00;11.00;;;;;18.38;23.07;101798.69;5056930;28;45465;-81
2022/04/03 05:36:59;;;;;;;;;15.00;15.00;;;;;17.93;22.93;101719.72;5054982;28;47305;-82
2022/04/03 05:39:24;;;;;;;;;14.00;12.00;;;;;18.42;22.98;101788.81;5056688;28;45393;-81
2022/04/03 05:41:55;;;;;;;;;14.33;12.00;;;;;17.93;22.91;101711.66;5056970;28;45474;-81
2022/04/03 05:44:21;;;;;;;;;14.67;13.33;;;;;18.24;22.82;101763.72;5056956;28;45360;-82
2022/04/03 05:46:47;;;;;;;;;14.00;11.67;;;;;17.87;22.96;101725.03;5056270;28;46143;-81
2022/04/03 05:49:12;;;;;;;;;14.33;11.00;;;;;18.17;22.93;101794.09;5056361;28;45344;-81
2022/04/03 05:51:37;;;;;;;;;16.00;14.67;;;;;18.34;23.03;101799.56;5056754;28;45423;-81
2022/04/03 05:54:03;;;;;;;;;10.67;8.67;;;;;17.71;23.06;101682.03;5056643;28;45383;-81
2022/04/03 05:56:31;;;;;;;;;14.33;12.00;;;;;18.38;22.85;101785.25;5056401;28;45414;-81
2022/04/03 05:58:57;;;;;;;;;14.33;14.33;;;;;18.48;22.91;101810.31;5056256;28;45308;-81
2022/04/03 06:01:22;;;;;;;;;15.33;14.33;;;;;18.24;22.47;101768.16;5056546;28;45321;-81
2022/04/03 06:03:47;;;;;;;;;12.00;11.33;;;;;18.43;22.55;101815.69;5055308;28;45486;-81
2022/04/03 06:06:13;;;;;;;;;12.33;11.33;;;;;18.50;22.69;101817.50;5056006;28;46182;-81
2022/04/03 06:08:39;;;;;;;;;14.33;13.00;;;;;18.63;22.20;101817.53;5056326;28;45835;-81
2022/04/03 06:11:04;;;;;;;;;15.00;12.00;;;;;18.13;22.80;101736.81;5056233;28;45367;-80
2022/04/03 06:13:30;;;;;;;;;16.33;14.00;;;;;18.61;22.68;101822.03;5056338;28;45420;-81
2022/04/03 06:15:55;;;;;;;;;17.33;14.33;;;;;18.17;22.71;101757.41;5056097;28;45400;-81
2022/04/03 06:18:20;;;;;;;;;14.33;12.00;;;;;18.58;22.74;101822.00;5056132;28;45460;-82
2022/04/03 06:20:47;;;;;;;;;15.00;12.33;;;;;18.57;22.51;101836.34;5055842;28;45330;-81
2022/04/03 06:23:14;;;;;;;;;16.00;16.00;;;;;18.51;22.56;101832.75;5056242;28;45598;-81
2022/04/03 06:25:40;;;;;;;;;17.00;12.00;;;;;18.57;22.57;101830.97;5056105;28;45493;-81
2022/04/03 06:28:05;;;;;;;;;17.33;15.00;;;;;18.19;22.11;101760.09;5055876;28;45514;-81
2022/04/03 06:30:31;;;;;;;;;16.33;15.67;;;;;18.59;22.21;101839.94;5056295;28;45471;-81
2022/04/03 06:32:56;;;;;;;;;5.67;4.33;;;;;18.58;22.51;101843.50;5055923;28;45427;-81
2022/04/03 06:35:22;;;;;;;;;12.00;12.00;;;;;18.23;22.29;101795.94;5055848;28;45411;-81
2022/04/03 06:37:48;;;;;;;;;14.00;13.33;;;;;18.27;22.39;101844.31;5056083;28;45483;-81
2022/04/03 06:40:13;;;;;;;;;15.67;15.67;;;;;18.28;22.51;101855.94;5055723;28;45805;-81
2022/04/03 06:42:40;;;;;;;;;16.33;14.00;;;;;18.04;22.53;101820.00;5055877;28;45325;-81
2022/04/03 06:45:06;;;;;;;;;14.67;13.33;;;;;18.27;22.52;101854.13;5054476;28;46668;-81
2022/04/03 06:47:32;;;;;;;;;19.00;15.33;;;;;18.29;22.52;101864.00;5055375;28;45323;-81
2022/04/03 06:49:58;;;;;;;;;18.33;11.67;;;;;18.29;22.59;101866.69;5055665;28;45489;-81
2022/04/03 06:52:23;;;;;;;;;14.00;12.67;;;;;17.15;22.35;101705.84;5055455;28;45533;-81
2022/04/03 06:54:49;;;;;;;;;12.00;12.00;;;;;17.72;22.39;101831.44;5055299;28;45505;-81
2022/04/03 06:57:16;;;;;;;;;16.00;13.67;;;;;17.93;22.72;101864.69;5055621;28;45491;-81
2022/04/03 06:59:42;;;;;;;;;18.67;15.67;;;;;17.91;22.76;101834.25;5055819;28;45323;-82
2022/04/03 07:02:08;;;;;;;;;15.67;13.33;;;;;18.05;22.36;101835.22;5055312;28;45461;-81
2022/04/03 07:04:34;;;;;;;;;15.67;15.67;;;;;17.81;22.69;101812.69;5055216;28;45281;-81
2022/04/03 07:06:59;;;;;;;;;19.00;16.67;;;;;18.14;22.35;101880.94;5054290;28;46167;-81
2022/04/03 07:09:25;;;;;;;;;17.67;15.00;;;;;17.46;22.41;101767.75;5054094;28;45506;-81
2022/04/03 07:11:50;;;;;;;;;14.00;12.33;;;;;18.24;22.25;101878.28;5055622;28;45522;-82
2022/04/03 07:14:15;;;;;;;;;15.00;15.00;;;;;17.99;22.41;101830.72;5055041;28;46191;-81
2022/04/03 07:16:40;;;;;;;;;19.00;15.00;;;;;18.40;22.20;101876.59;5054844;28;45384;-81
2022/04/03 07:19:06;;;;;;;;;15.33;14.67;;;;;18.38;21.91;101883.75;5055471;28;45464;-82
2022/04/03 07:21:32;;;;;;;;;16.00;15.67;;;;;17.70;21.98;101771.47;5055267;28;45394;-81
2022/04/03 07:23:57;;;;;;;;;16.33;12.67;;;;;18.07;22.20;101859.41;5055023;28;45423;-82
2022/04/03 07:26:23;;;;;;;;;14.67;13.33;;;;;18.32;22.05;101876.56;5070545;28;45430;-82
2022/04/03 07:28:48;;;;;;;;;15.67;15.67;;;;;18.47;22.07;101884.69;5055366;28;45442;-82
2022/04/03 07:31:13;;;;;;;;;10.67;10.67;;;;;18.54;22.10;101884.69;5053305;28;45671;-82
2022/04/03 07:33:39;;;;;;;;;15.67;15.67;;;;;18.62;21.61;101889.22;5055074;28;46359;-82
2022/04/03 07:36:04;;;;;;;;;15.67;14.67;;;;;18.52;21.92;101839.00;5061056;28;45519;-81
2022/04/03 07:38:30;;;;;;;;;14.00;14.00;;;;;18.55;21.64;101854.25;5062614;28;45490;-80
2022/04/03 07:40:55;;;;;;;;;16.00;14.67;;;;;18.71;21.32;101892.84;5062064;28;45518;-80
2022/04/03 07:43:21;;;;;;;;;11.00;9.67;;;;;18.67;21.66;101897.31;5060155;28;47126;-81
2022/04/03 07:45:46;;;;;;;;;14.67;13.67;;;;;18.76;21.33;101891.97;5061337;28;45464;-82
2022/04/03 07:48:12;;;;;;;;;15.67;15.67;;;;;18.89;21.85;101894.72;5061583;28;45546;-81
2022/04/03 07:50:38;;;;;;;;;15.67;12.00;;;;;18.99;21.28;101891.16;5061480;28;45367;-81
2022/04/03 07:53:05;;;;;;;;;14.67;12.67;;;;;19.13;21.61;101897.47;5060415;28;48114;-82
2022/04/03 07:55:30;;;;;;;;;17.00;15.33;;;;;18.87;21.44;101851.69;5061516;28;45480;-81
2022/04/03 07:57:56;;;;;;;;;16.33;15.33;;;;;19.14;21.21;101892.97;5061797;28;45417;-82
2022/04/03 08:00:22;;;;;;;;;11.33;11.33;;;;;19.01;21.16;101859.78;5061328;28;45485;-82
2022/04/03 08:02:47;;;;;;;;;16.33;12.67;;;;;19.26;21.36;101898.38;5060442;28;46481;-82
2022/04/03 08:05:13;;;;;;;;;17.67;14.00;;;;;19.36;21.16;101904.66;5061426;28;45207;-81
2022/04/03 08:07:44;;;;;;;;;15.00;14.00;;;;;18.78;20.92;101789.81;5060294;28;45408;-81
2022/04/03 08:10:12;;;;;;;;;13.33;11.33;;;;;19.18;20.75;101889.41;5061336;28;45575;-82
2022/04/03 08:12:39;;;;;;;;;10.00;10.00;;;;;18.39;20.97;101753.91;5061394;28;46833;-81
2022/04/03 08:15:07;;;;;;;;;12.00;9.33;;;;;18.75;20.80;101814.91;5059710;28;45448;-81
2022/04/03 08:17:38;;;;;;;;;11.00;10.33;;;;;18.90;20.76;101832.88;5061424;28;45441;-81
2022/04/03 08:20:05;;;;;;;;;12.00;12.00;;;;;19.15;20.85;101882.22;5061292;28;45444;-80
2022/04/03 08:22:31;;;;;;;;;17.33;16.00;;;;;19.29;21.02;101913.63;5060838;28;45384;-81
2022/04/03 08:24:56;;;;;;;;;11.67;11.67;;;;;19.08;20.65;101828.41;5060879;28;45396;-81
2022/04/03 08:27:22;;;;;;;;;14.33;11.00;;;;;19.12;20.41;101841.88;5061419;28;45332;-81
2022/04/03 08:29:48;;;;;;;;;13.33;11.33;;;;;19.47;20.60;101892.13;5061136;28;45418;-82
2022/04/03 08:32:14;;;;;;;;;11.00;11.00;;;;;19.48;20.72;101885.84;5060924;28;45320;-82
2022/04/03 08:34:40;;;;;;;;;7.00;7.00;;;;;19.17;20.14;101888.50;5060976;28;45264;-81
2022/04/03 08:37:07;;;;;;;;;11.00;10.33;;;;;19.16;20.42;101918.97;5061054;28;45498;-81
2022/04/03 08:39:33;;;;;;;;;12.33;7.00;;;;;18.92;20.41;101860.66;5059664;28;45586;-81
2022/04/03 08:41:59;;;;;;;;;9.33;8.00;;;;;19.05;20.24;101918.06;5060940;28;46214;-81
2022/04/03 08:44:25;;;;;;;;;10.67;10.33;;;;;19.08;20.28;101911.81;5060423;28;45520;-80
2022/04/03 08:46:50;;;;;;;;;9.67;9.67;;;;;18.95;20.31;101892.94;5057720;28;45518;-82
2022/04/03 08:49:19;;;;;;;;;10.67;8.67;;;;;19.19;20.06;101885.81;5057523;28;45424;-81
2022/04/03 08:51:46;;;;;;;;;12.33;10.33;;;;;19.45;20.42;101911.84;5057560;28;46116;-81
2022/04/03 08:54:14;;;;;;;;;7.00;6.00;;;;;19.30;20.40;101846.38;5057502;28;45245;-81
2022/04/03 08:56:42;;;;;;;;;10.00;10.00;;;;;19.94;20.09;101916.34;5057669;28;45290;-81
2022/04/03 08:59:08;;;;;;;;;7.33;7.00;;;;;19.24;19.83;101797.03;5057209;28;45319;-81
2022/04/03 09:01:34;;;;;;;;;7.67;7.00;;;;;19.81;19.73;101900.19;5057156;28;45287;-81
2022/04/03 09:03:59;;;;;;;;;8.33;8.33;;;;;19.76;19.22;101915.47;5057625;28;45360;-80
2022/04/03 09:06:24;;;;;;;;;7.00;7.00;;;;;19.08;19.52;101799.72;5057529;28;45246;-81
2022/04/03 09:08:50;;;;;;;;;7.67;7.67;;;;;19.12;19.62;101787.19;5057465;28;45401;-81
2022/04/03 09:11:16;;;;;;;;;8.33;8.00;;;;;19.44;18.94;101861.63;5057331;28;46049;-81
2022/04/03 09:13:43;;;;;;;;;11.00;8.33;;;;;19.39;19.01;101884.94;5057178;28;45405;-82
2022/04/03 09:16:10;;;;;;;;;5.67;5.67;;;;;18.89;18.75;101824.78;5057283;28;45524;-81
2022/04/03 09:18:47;;;;;;;;;8.67;6.67;;;;;18.91;18.76;101825.72;5057136;28;45487;-81
2022/04/03 09:21:20;;;;;;;;;5.33;5.33;;;;;19.35;18.56;101916.31;5055617;28;46643;-82
2022/04/03 09:24:00;;;;;;;;;6.33;6.33;;;;;19.55;18.65;101921.75;5055594;28;45624;-81
2022/04/03 09:26:27;;;;;;;;;6.00;6.00;;;;;19.15;17.95;101831.09;5057296;28;45398;-81
2022/04/03 09:29:12;;;;;;;;;7.00;5.33;;;;;19.61;18.34;101927.13;5056773;28;45364;-81
2022/04/03 09:31:39;;;;;;;;;5.33;5.33;;;;;19.51;17.77;101915.44;5057081;28;46361;-81
2022/04/03 09:34:07;;;;;;;;;5.50;5.50;;;;;18.90;18.29;101770.13;5056849;28;45442;-81
2022/04/03 09:36:35;;;;;;;;;5.67;3.00;;;;;19.66;17.07;101886.72;5057175;28;45562;-82
2022/04/03 09:39:16;;;;;;;;;5.33;3.33;;;;;19.71;17.89;101879.53;5055489;28;45508;-81
2022/04/03 09:42:04;;;;;;;;;2.00;2.00;;;;;19.50;17.12;101913.63;5055126;28;47358;-82
2022/04/03 09:44:35;;;;;;;;;3.00;3.00;;;;;19.41;17.45;101886.75;5056926;28;45261;-82
2022/04/03 09:47:15;;;;;;;;;5.33;4.67;;;;;18.85;17.36;101770.09;5056984;28;45403;-82
2022/04/03 09:49:44;;;;;;;;;1.00;1.00;;;;;19.68;17.45;101912.75;5057027;28;45244;-81
2022/04/03 09:52:10;;;;;;;;;5.33;3.00;;;;;19.45;16.26;101918.16;5056356;28;45501;-81
2022/04/03 09:54:39;;;;;;;;;4.33;2.00;;;;;19.05;16.45;101864.28;5056651;28;45311;-81
2022/04/03 09:57:19;;;;;;;;;2.67;0.00;;;;;19.30;16.50;101894.78;5056523;28;45323;-81
2022/04/03 09:59:53;;;;;;;;;4.33;3.00;;;;;19.44;16.60;101907.38;5056612;28;45369;-81
2022/04/03 10:02:20;;;;;;;;;2.67;2.67;;;;;19.43;16.61;101906.47;5056369;28;46098;-81
2022/04/03 10:04:46;;;;;;;;;2.00;2.00;;;;;19.75;16.94;101919.03;5056358;28;45403;-82
2022/04/03 10:07:13;;;;;;;;;4.33;2.00;;;;;20.11;16.83;101916.31;5056665;28;45477;-81
2022/04/03 10:09:45;;;;;;;;;2.00;2.00;;;;;20.13;16.70;101911.84;5056452;28;45447;-80
2022/04/03 10:12:14;;;;;;;;;3.00;2.00;;;;;20.25;16.41;101898.31;5056011;28;45458;-81
2022/04/03 10:14:40;;;;;;;;;3.33;2.00;;;;;20.33;16.85;101901.88;5056371;28;45256;-81
2022/04/03 10:17:05;;;;;;;;;1.33;1.33;;;;;20.39;16.82;101874.94;5056694;28;45278;-81
2022/04/03 10:19:31;;;;;;;;;2.33;2.33;;;;;19.68;15.95;101778.13;5056338;28;45539;-80
2022/04/03 10:21:59;;;;;;;;;3.00;3.00;;;;;20.34;16.55;101910.91;5056000;28;46475;-80
2022/04/03 10:24:26;;;;;;;;;2.00;2.00;;;;;20.49;16.33;101904.53;5056126;28;45460;-81
2022/04/03 10:27:02;;;;;;;;;3.67;2.67;;;;;20.77;16.95;101910.72;5055980;28;45446;-81
2022/04/03 10:29:37;;;;;;;;;2.67;2.67;;;;;20.61;16.76;101868.56;5056327;28;45617;-80
2022/04/03 10:32:03;;;;;;;;;3.00;3.00;;;;;20.77;16.22;101890.97;5056177;28;46364;-80
2022/04/03 10:34:29;;;;;;;;;2.33;2.33;;;;;20.43;16.26;101875.78;5056016;28;45487;-80
2022/04/03 10:36:54;;;;;;;;;6.00;4.00;;;;;20.45;16.30;101905.44;5056176;28;45341;-82
2022/04/03 10:39:25;;;;;;;;;2.00;2.00;;;;;20.45;16.80;101905.44;5055981;28;45554;-80
2022/04/03 10:42:20;;;;;;;;;2.67;2.67;;;;;20.44;16.65;101872.22;5055838;28;45436;-81
2022/04/03 10:45:11;;;;;;;;;3.00;3.00;;;;;20.67;16.35;101890.06;5071283;28;45596;-80
2022/04/03 10:47:37;;;;;;;;;2.00;2.00;;;;;20.97;16.38;101880.06;5055956;28;45513;-81
2022/04/03 10:50:05;;;;;;;;;1.33;1.33;;;;;21.12;16.00;101892.56;5055584;28;45549;-80
2022/04/03 10:52:36;;;;;;;;;4.33;4.33;;;;;21.27;16.25;101892.44;5054492;28;47248;-80
2022/04/03 10:55:17;;;;;;;;;4.00;3.00;;;;;21.22;15.65;101876.31;5054217;28;45424;-80
2022/04/03 10:57:43;;;;;;;;;2.00;2.00;;;;;21.35;15.94;101896.00;5056092;28;45392;-80
2022/04/03 11:00:11;;;;;;;;;2.00;2.00;;;;;21.54;15.74;101890.47;5055565;28;45314;-81
2022/04/03 11:02:44;;;;;;;;;3.00;2.00;;;;;21.02;15.35;101830.56;5055385;28;46302;-81
2022/04/03 11:05:21;;;;;;;;;1.00;1.00;;;;;21.28;15.47;101885.25;5055594;28;45378;-80
2022/04/03 11:07:48;;;;;;;;;1.67;1.67;;;;;20.76;15.01;101879.28;5055842;28;45332;-80
2022/04/03 11:10:13;;;;;;;;;3.33;2.67;;;;;20.54;16.03;101825.44;5054505;28;45416;-80